createdAt,value
2018-09-28T00:01:37.892Z,16.77
2018-09-28T00:04:06.152Z,21.80
2018-09-28T00:06:34.405Z,17.48
2018-09-28T00:09:02.693Z,19.30
2018-09-28T00:11:30.939Z,20.43
2018-09-28T00:13:59.167Z,14.95
2018-09-28T00:16:27.408Z,11.97
2018-09-28T00:18:55.627Z,14.87
2018-09-28T00:21:23.839Z,10.08
2018-09-28T00:23:52.088Z,14.43
2018-09-28T00:26:20.325Z,11.03
2018-09-28T00:28:48.612Z,9.48
2018-09-28T00:31:16.928Z,6.37
2018-09-28T00:33:45.175Z,8.00
2018-09-28T00:36:13.407Z,6.70
2018-09-28T00:38:41.660Z,6.00
2018-09-28T00:41:09.907Z,4.58
2018-09-28T00:43:38.158Z,7.37
2018-09-28T00:46:06.440Z,8.00
2018-09-28T00:48:34.698Z,8.90
2018-09-28T00:51:02.924Z,11.47
2018-09-28T00:53:31.174Z,8.13
2018-09-28T00:55:59.388Z,8.60
2018-09-28T00:58:27.680Z,14.87
2018-09-28T01:00:55.959Z,9.20
2018-09-28T01:03:24.174Z,6.90
2018-09-28T01:05:52.399Z,11.22
2018-09-28T01:08:20.675Z,6.45
2018-09-28T01:10:48.972Z,10.50
2018-09-28T01:13:17.876Z,10.60
2018-09-28T01:15:46.169Z,13.32
2018-09-28T01:18:14.525Z,12.93
2018-09-28T01:20:42.770Z,11.50
2018-09-28T01:23:11.068Z,10.47
2018-09-28T01:25:39.360Z,18.00
2018-09-28T01:28:07.581Z,14.53
2018-09-28T01:30:35.879Z,11.63
2018-09-28T01:35:23.904Z,10.25
2018-09-28T01:37:52.171Z,13.98
2018-09-28T01:40:20.431Z,16.55
2018-09-28T01:42:48.757Z,12.13
2018-09-28T01:45:17.273Z,12.98
2018-09-28T01:47:45.578Z,15.57
2018-09-28T01:50:13.869Z,11.50
2018-09-28T01:52:42.162Z,11.35
2018-09-28T01:55:10.419Z,11.07
2018-09-28T01:57:38.631Z,10.97
2018-09-28T02:00:06.868Z,10.80
2018-09-28T02:02:35.108Z,11.93
2018-09-28T02:05:03.328Z,10.70
2018-09-28T02:07:31.556Z,13.80
2018-09-28T02:09:59.820Z,11.20
2018-09-28T02:12:28.055Z,10.57
2018-09-28T02:14:56.320Z,9.80
2018-09-28T02:17:24.582Z,8.93
2018-09-28T02:19:52.831Z,7.60
2018-09-28T02:22:21.055Z,11.50
2018-09-28T02:24:49.335Z,12.97
2018-09-28T02:27:17.593Z,10.60
2018-09-28T02:29:45.837Z,13.03
2018-09-28T02:32:14.147Z,17.03
2018-09-28T02:34:42.373Z,10.72
2018-09-28T02:37:10.595Z,15.13
2018-09-28T02:39:38.857Z,15.60
2018-09-28T02:42:07.069Z,13.35
2018-09-28T02:44:35.271Z,16.97
2018-09-28T02:47:03.523Z,15.85
2018-09-28T02:49:31.809Z,12.37
2018-09-28T02:52:00.030Z,11.30
2018-09-28T02:54:28.597Z,14.40
2018-09-28T02:56:56.903Z,15.13
2018-09-28T02:59:25.094Z,13.23
2018-09-28T03:01:53.311Z,10.77
2018-09-28T03:04:21.591Z,10.40
2018-09-28T03:06:49.864Z,10.40
2018-09-28T03:09:18.174Z,14.55
2018-09-28T03:11:46.462Z,14.50
2018-09-28T03:14:15.090Z,17.23
2018-09-28T03:16:43.397Z,14.23
2018-09-28T03:19:11.644Z,14.87
2018-09-28T03:21:39.867Z,12.93
2018-09-28T03:24:08.059Z,14.37
2018-09-28T03:26:36.300Z,14.17
2018-09-28T03:29:04.508Z,13.33
2018-09-28T03:31:32.751Z,13.03
2018-09-28T03:34:00.979Z,12.03
2018-09-28T03:36:29.816Z,14.73
2018-09-28T03:38:58.075Z,15.43
2018-09-28T03:41:26.324Z,14.20
2018-09-28T03:43:54.555Z,14.77
2018-09-28T03:46:23.894Z,14.60
2018-09-28T03:48:52.475Z,12.90
2018-09-28T03:51:21.685Z,16.03
2018-09-28T03:53:49.980Z,17.95
2018-09-28T03:56:19.525Z,16.83
2018-09-28T03:58:48.576Z,10.60
2018-09-28T04:01:17.098Z,13.53
2018-09-28T04:03:46.165Z,15.73
2018-09-28T04:06:14.574Z,9.70
2018-09-28T04:08:42.817Z,11.93
2018-09-28T04:11:11.082Z,18.03
2018-09-28T04:13:39.585Z,15.50
2018-09-28T04:16:07.885Z,12.50
2018-09-28T04:18:36.105Z,15.83
2018-09-28T04:21:04.369Z,13.27
2018-09-28T04:23:32.648Z,16.90
2018-09-28T04:26:00.900Z,15.10
2018-09-28T04:28:29.168Z,15.15
2018-09-28T04:30:57.416Z,16.07
2018-09-28T04:33:25.720Z,12.97
2018-09-28T04:35:53.971Z,15.33
2018-09-28T04:38:22.216Z,14.93
2018-09-28T04:40:51.402Z,17.43
2018-09-28T04:43:19.684Z,13.23
2018-09-28T04:45:47.973Z,15.40
2018-09-28T04:48:16.292Z,17.60
2018-09-28T04:50:44.552Z,14.27
2018-09-28T04:53:12.772Z,16.03
2018-09-28T04:55:41.024Z,15.17
2018-09-28T04:58:09.263Z,14.00
2018-09-28T05:00:37.569Z,14.50
2018-09-28T05:03:06.071Z,15.03
2018-09-28T05:05:34.295Z,11.23
2018-09-28T05:08:02.558Z,15.27
2018-09-28T05:10:30.785Z,15.40
2018-09-28T05:12:59.034Z,12.83
2018-09-28T05:15:27.233Z,15.67
2018-09-28T05:17:55.492Z,14.60
2018-09-28T05:20:23.708Z,15.37
2018-09-28T05:22:51.976Z,14.00
2018-09-28T05:25:20.358Z,15.70
2018-09-28T05:27:48.657Z,15.73
2018-09-28T05:30:17.004Z,16.63
2018-09-28T05:32:45.487Z,14.33
2018-09-28T05:35:13.645Z,13.67
2018-09-28T05:37:42.065Z,12.77
2018-09-28T05:40:10.356Z,20.88
2018-09-28T05:42:38.901Z,16.80
2018-09-28T05:45:07.692Z,12.87
2018-09-28T05:47:36.028Z,11.37
2018-09-28T05:50:04.397Z,14.57
2018-09-28T05:52:32.678Z,15.10
2018-09-28T05:55:00.926Z,13.77
2018-09-28T05:57:29.165Z,16.53
2018-09-28T06:00:02.691Z,15.27
2018-09-28T06:02:36.304Z,14.47
2018-09-28T06:05:10.085Z,16.10
2018-09-28T06:07:38.335Z,15.67
2018-09-28T06:10:06.551Z,15.13
2018-09-28T06:12:34.808Z,14.03
2018-09-28T06:15:03.691Z,15.13
2018-09-28T06:17:31.866Z,16.33
2018-09-28T06:20:00.656Z,11.03
2018-09-28T06:22:28.920Z,13.27
2018-09-28T06:24:57.180Z,10.43
2018-09-28T06:27:25.388Z,17.50
2018-09-28T06:29:53.619Z,12.93
2018-09-28T06:32:21.807Z,13.88
2018-09-28T06:34:50.039Z,18.00
2018-09-28T06:37:18.384Z,12.37
2018-09-28T06:39:46.675Z,11.35
2018-09-28T06:42:14.967Z,11.03
2018-09-28T06:44:43.212Z,13.80
2018-09-28T06:47:11.485Z,10.40
2018-09-28T06:49:39.820Z,10.48
2018-09-28T06:52:08.089Z,10.58
2018-09-28T06:54:36.357Z,11.90
2018-09-28T06:57:04.599Z,10.65
2018-09-28T06:59:32.868Z,16.27
2018-09-28T07:02:01.173Z,14.15
2018-09-28T07:04:29.449Z,12.40
2018-09-28T07:06:57.749Z,11.85
2018-09-28T07:09:26.019Z,7.60
2018-09-28T07:11:54.295Z,12.88
2018-09-28T07:14:22.504Z,12.28
2018-09-28T07:16:51.360Z,12.50
2018-09-28T07:19:19.597Z,14.33
2018-09-28T07:21:47.907Z,9.75
2018-09-28T07:24:16.290Z,10.05
2018-09-28T07:26:44.850Z,11.60
2018-09-28T07:29:13.136Z,14.05
2018-09-28T07:31:41.406Z,15.63
2018-09-28T07:34:09.640Z,12.73
2018-09-28T07:36:37.894Z,12.50
2018-09-28T07:39:09.011Z,14.87
2018-09-28T07:41:37.393Z,10.03
2018-09-28T07:44:05.628Z,11.73
2018-09-28T07:46:34.316Z,13.40
2018-09-28T07:49:02.703Z,12.13
2018-09-28T07:51:31.013Z,13.22
2018-09-28T07:53:59.393Z,15.90
2018-09-28T07:56:27.794Z,10.50
2018-09-28T07:58:56.012Z,14.10
2018-09-28T08:01:24.279Z,11.00
2018-09-28T08:03:52.546Z,15.03
2018-09-28T08:06:20.844Z,12.23
2018-09-28T08:08:49.132Z,8.03
2018-09-28T08:11:17.477Z,10.00
2018-09-28T08:13:45.880Z,13.03
2018-09-28T08:16:14.142Z,10.20
2018-09-28T08:18:42.352Z,11.33
2018-09-28T08:21:10.592Z,11.57
2018-09-28T08:23:38.856Z,13.13
2018-09-28T08:26:07.334Z,9.37
2018-09-28T08:28:35.568Z,12.73
2018-09-28T08:31:03.808Z,9.67
2018-09-28T08:33:32.016Z,11.20
2018-09-28T08:36:00.276Z,11.03
2018-09-28T08:38:28.529Z,13.27
2018-09-28T08:40:56.820Z,11.15
2018-09-28T08:43:25.140Z,13.83
2018-09-28T08:45:53.330Z,9.17
2018-09-28T08:48:21.670Z,15.90
2018-09-28T08:50:50.072Z,9.40
2018-09-28T08:53:18.375Z,9.30
2018-09-28T08:55:46.677Z,10.70
2018-09-28T08:58:14.921Z,11.60
2018-09-28T09:00:43.212Z,11.50
2018-09-28T09:03:11.756Z,8.93
2018-09-28T09:05:40.025Z,7.58
2018-09-28T09:08:08.500Z,12.13
2018-09-28T09:10:36.784Z,8.60
2018-09-28T09:13:05.030Z,9.77
2018-09-28T09:15:33.234Z,12.07
2018-09-28T09:18:01.527Z,13.05
2018-09-28T09:20:36.537Z,9.98
2018-09-28T09:23:04.781Z,11.90
2018-09-28T09:25:33.016Z,9.33
2018-09-28T09:28:01.250Z,13.78
2018-09-28T09:30:29.468Z,11.55
2018-09-28T09:32:57.745Z,8.87
2018-09-28T09:35:26.076Z,10.60
2018-09-28T09:37:54.359Z,7.65
2018-09-28T09:40:22.616Z,10.23
2018-09-28T09:42:50.908Z,8.95
2018-09-28T09:45:19.132Z,8.65
2018-09-28T09:47:47.435Z,11.38
2018-09-28T09:50:15.689Z,8.37
2018-09-28T09:52:43.997Z,4.95
2018-09-28T09:55:12.295Z,9.90
2018-09-28T09:57:40.580Z,6.53
2018-09-28T10:00:09.059Z,9.25
2018-09-28T10:02:42.741Z,5.60
2018-09-28T10:05:11.016Z,9.05
2018-09-28T10:07:39.431Z,8.93
2018-09-28T10:10:07.685Z,8.25
2018-09-28T10:12:36.146Z,8.03
2018-09-28T10:15:04.621Z,6.53
2018-09-28T10:17:32.933Z,8.78
2018-09-28T10:20:01.159Z,9.43
2018-09-28T10:22:29.365Z,9.20
2018-09-28T10:24:57.580Z,10.10
2018-09-28T10:27:25.866Z,10.68
2018-09-28T10:29:54.066Z,10.80
2018-09-28T10:32:22.309Z,8.48
2018-09-28T10:34:50.672Z,11.33
2018-09-28T10:37:18.884Z,8.55
2018-09-28T10:39:47.274Z,10.72
2018-09-28T10:42:15.555Z,10.32
2018-09-28T10:44:43.860Z,7.95
2018-09-28T10:47:12.085Z,5.80
2018-09-28T10:49:40.331Z,6.30
2018-09-28T10:52:08.992Z,8.00
2018-09-28T10:54:38.052Z,11.38
2018-09-28T10:57:06.573Z,8.23
2018-09-28T10:59:34.837Z,11.33
2018-09-28T11:02:03.125Z,8.55
2018-09-28T11:04:31.363Z,7.97
2018-09-28T11:06:59.888Z,11.28
2018-09-28T11:09:28.240Z,8.35
2018-09-28T11:11:56.463Z,9.93
2018-09-28T11:14:24.693Z,8.45
2018-09-28T11:16:52.936Z,9.43
2018-09-28T11:19:21.194Z,6.28
2018-09-28T11:21:49.581Z,9.05
2018-09-28T11:24:17.876Z,6.17
2018-09-28T11:26:47.152Z,7.90
2018-09-28T11:29:15.388Z,9.35
2018-09-28T11:31:43.707Z,9.50
2018-09-28T11:34:11.984Z,7.92
2018-09-28T11:36:40.525Z,8.80
2018-09-28T11:39:08.825Z,9.85
2018-09-28T11:41:37.036Z,4.58
2018-09-28T11:44:05.324Z,11.30
2018-09-28T11:46:33.564Z,9.78
2018-09-28T11:49:02.567Z,6.15
2018-09-28T11:51:30.897Z,8.18
2018-09-28T11:53:59.129Z,7.95
2018-09-28T11:56:27.398Z,7.58
2018-09-28T11:58:55.602Z,6.78
2018-09-28T12:01:23.843Z,6.35
2018-09-28T12:03:52.180Z,5.85
2018-09-28T12:06:20.483Z,6.65
2018-09-28T12:08:48.666Z,6.67
2018-09-28T12:11:16.952Z,6.17
2018-09-28T12:13:45.219Z,5.22
2018-09-28T12:16:13.509Z,8.33
2018-09-28T12:18:41.758Z,8.15
2018-09-28T12:21:09.998Z,7.37
2018-09-28T12:23:38.188Z,5.45
2018-09-28T12:26:06.488Z,8.43
2018-09-28T12:28:34.684Z,6.72
2018-09-28T12:31:02.960Z,7.22
2018-09-28T12:33:31.325Z,6.40
2018-09-28T12:35:59.544Z,3.83
2018-09-28T12:38:27.755Z,5.15
2018-09-28T12:40:56.014Z,6.70
2018-09-28T12:43:24.260Z,5.58
2018-09-28T12:45:52.544Z,5.75
2018-09-28T12:48:20.914Z,6.05
2018-09-28T12:50:49.254Z,6.95
2018-09-28T12:53:17.493Z,6.42
2018-09-28T12:55:45.830Z,5.78
2018-09-28T12:58:14.061Z,5.53
2018-09-28T13:00:42.395Z,5.78
2018-09-28T13:03:10.572Z,6.37
2018-09-28T13:05:38.877Z,6.07
2018-09-28T13:08:07.192Z,7.97
2018-09-28T13:10:35.490Z,7.00
2018-09-28T13:13:03.748Z,7.20
2018-09-28T13:15:31.988Z,6.23
2018-09-28T13:18:00.263Z,7.22
2018-09-28T13:20:28.519Z,6.05
2018-09-28T13:22:56.818Z,6.07
2018-09-28T13:25:25.086Z,8.18
2018-09-28T13:27:53.311Z,6.30
2018-09-28T13:30:21.610Z,9.18
2018-09-28T13:32:49.917Z,6.75
2018-09-28T13:35:18.193Z,10.30
2018-09-28T13:37:46.640Z,7.20
2018-09-28T13:40:14.949Z,6.85
2018-09-28T13:42:43.211Z,7.10
2018-09-28T13:45:11.571Z,9.93
2018-09-28T13:47:39.684Z,6.85
2018-09-28T13:50:07.964Z,5.97
2018-09-28T13:52:36.866Z,7.97
2018-09-28T13:55:05.340Z,8.65
2018-09-28T13:57:33.569Z,8.13
2018-09-28T14:00:01.902Z,6.42
2018-09-28T14:02:30.227Z,6.00
2018-09-28T14:04:58.484Z,4.90
2018-09-28T14:07:26.726Z,7.50
2018-09-28T14:09:54.967Z,6.12
2018-09-28T14:12:23.287Z,7.40
2018-09-28T14:14:52.080Z,6.55
2018-09-28T14:22:17.489Z,7.55
2018-09-28T14:24:46.167Z,7.97
2018-09-28T14:27:14.441Z,9.28
2018-09-28T14:29:42.660Z,8.08
2018-09-28T14:32:10.917Z,9.83
2018-09-28T14:34:39.711Z,7.10
2018-09-28T14:37:08.970Z,7.05
2018-09-28T14:39:37.251Z,9.10
2018-09-28T14:42:05.530Z,7.47
2018-09-28T14:44:33.792Z,8.03
2018-09-28T14:47:02.021Z,5.58
2018-09-28T14:49:30.559Z,7.80
2018-09-28T14:51:58.828Z,6.22
2018-09-28T14:54:27.150Z,6.83
2018-09-28T14:56:55.375Z,8.20
2018-09-28T14:59:23.644Z,5.42
2018-09-28T15:01:52.646Z,8.08
2018-09-28T15:04:21.070Z,10.73
2018-09-28T15:06:49.513Z,9.63
2018-09-28T15:09:18.369Z,9.40
2018-09-28T15:11:47.050Z,8.65
2018-09-28T15:14:15.387Z,7.25
2018-09-28T15:16:43.750Z,10.58
2018-09-28T15:19:12.025Z,7.80
2018-09-28T15:21:40.299Z,8.55
2018-09-28T15:24:08.578Z,7.70
2018-09-28T15:26:36.836Z,9.38
2018-09-28T15:29:05.140Z,9.88
2018-09-28T15:31:33.456Z,13.03
2018-09-28T15:34:01.715Z,9.93
2018-09-28T15:36:30.033Z,7.93
2018-09-28T15:38:58.340Z,10.93
2018-09-28T15:41:26.844Z,7.20
2018-09-28T15:43:55.329Z,8.77
2018-09-28T15:46:23.633Z,8.43
2018-09-28T15:48:51.903Z,9.13
2018-09-28T15:51:20.207Z,6.75
2018-09-28T15:53:48.596Z,6.83
2018-09-28T15:56:16.881Z,8.38
2018-09-28T15:58:45.165Z,6.25
2018-09-28T16:01:13.560Z,7.23
2018-09-28T16:03:41.889Z,10.27
2018-09-28T16:06:10.161Z,9.63
2018-09-28T16:08:38.411Z,7.97
2018-09-28T16:11:06.651Z,6.40
2018-09-28T16:13:35.440Z,9.60
2018-09-28T16:16:03.709Z,6.47
2018-09-28T16:18:32.000Z,11.27
2018-09-28T16:21:00.432Z,11.45
2018-09-28T16:23:28.674Z,10.07
2018-09-28T16:25:56.964Z,9.50
2018-09-28T16:28:25.236Z,6.87
2018-09-28T16:30:53.456Z,5.60
2018-09-28T16:33:21.731Z,10.33
2018-09-28T16:35:50.149Z,7.87
2018-09-28T16:38:18.411Z,9.20
2018-09-28T16:40:47.436Z,8.87
2018-09-28T16:43:15.791Z,9.77
2018-09-28T16:45:44.104Z,9.83
2018-09-28T16:48:12.443Z,12.70
2018-09-28T16:50:40.762Z,9.43
2018-09-28T16:53:09.014Z,11.73
2018-09-28T16:55:37.572Z,11.90
2018-09-28T16:58:05.831Z,12.93
2018-09-28T17:00:34.088Z,6.97
2018-09-28T17:03:02.317Z,8.77
2018-09-28T17:05:30.541Z,10.55
2018-09-28T17:07:58.811Z,10.87
2018-09-28T17:10:27.099Z,7.80
2018-09-28T17:12:55.394Z,10.87
2018-09-28T17:15:23.689Z,11.97
2018-09-28T17:17:51.980Z,9.13
2018-09-28T17:20:20.303Z,13.73
2018-09-28T17:22:48.768Z,15.23
2018-09-28T17:25:17.148Z,15.90
2018-09-28T17:27:46.067Z,12.00
2018-09-28T17:30:14.358Z,7.90
2018-09-28T17:32:42.591Z,6.20
2018-09-28T17:35:10.945Z,7.73
2018-09-28T17:37:39.188Z,8.80
2018-09-28T17:40:07.510Z,8.93
2018-09-28T17:42:35.792Z,7.70
2018-09-28T17:45:04.069Z,9.63
2018-09-28T17:47:32.348Z,9.47
2018-09-28T17:50:01.167Z,5.83
2018-09-28T17:52:29.622Z,7.00
2018-09-28T17:54:57.926Z,7.03
2018-09-28T17:57:26.258Z,13.07
2018-09-28T17:59:54.600Z,8.67
2018-09-28T18:02:22.938Z,8.77
2018-09-28T18:04:51.269Z,10.30
2018-09-28T18:07:19.600Z,8.70
2018-09-28T18:09:48.044Z,10.27
2018-09-28T18:12:16.509Z,8.07
2018-09-28T18:14:44.800Z,7.53
2018-09-28T18:17:13.315Z,8.45
2018-09-28T18:19:42.043Z,9.03
2018-09-28T18:22:10.404Z,15.27
2018-09-28T18:24:39.088Z,10.57
2018-09-28T18:27:07.814Z,10.80
2018-09-28T18:29:36.509Z,9.90
2018-09-28T18:32:04.945Z,6.40
2018-09-28T18:34:33.297Z,9.83
2018-09-28T18:37:01.621Z,9.90
2018-09-28T18:39:30.045Z,10.57
2018-09-28T18:41:58.436Z,8.57
2018-09-28T18:44:26.781Z,9.00
2018-09-28T18:46:55.201Z,14.80
2018-09-28T18:49:23.564Z,8.57
2018-09-28T18:51:52.193Z,11.17
2018-09-28T18:54:21.011Z,13.57
2018-09-28T18:56:49.689Z,12.25
2018-09-28T18:59:18.056Z,10.77
2018-09-28T19:01:47.700Z,13.03
2018-09-28T19:04:16.041Z,11.07
2018-09-28T19:06:44.477Z,11.10
2018-09-28T19:09:12.967Z,12.07
2018-09-28T19:11:42.049Z,10.60
2018-09-28T19:14:10.413Z,10.43
2018-09-28T19:16:38.796Z,10.57
2018-09-28T19:19:08.563Z,14.60
2018-09-28T19:21:36.909Z,12.03
2018-09-28T19:24:05.288Z,10.37
2018-09-28T19:26:33.627Z,10.33
2018-09-28T19:29:04.068Z,8.90
2018-09-28T19:31:32.862Z,11.73
2018-09-28T19:34:01.217Z,10.03
2018-09-28T19:36:30.192Z,8.53
2018-09-28T19:38:59.566Z,11.93
2018-09-28T19:41:28.047Z,10.70
2018-09-28T19:43:56.443Z,9.17
2018-09-28T19:46:25.741Z,10.53
2018-09-28T19:48:55.048Z,11.37
2018-09-28T19:51:23.378Z,8.00
2018-09-28T19:53:51.712Z,6.97
2018-09-28T19:56:20.011Z,9.73
2018-09-28T19:58:48.416Z,16.20
2018-09-28T20:01:16.870Z,8.30
2018-09-28T20:03:45.496Z,11.57
2018-09-28T20:06:14.229Z,13.73
2018-09-28T20:08:42.568Z,8.03
2018-09-28T20:11:11.600Z,13.23
2018-09-28T20:13:39.953Z,11.77
2018-09-28T20:16:08.639Z,10.20
2018-09-28T20:18:38.501Z,7.70
2018-09-28T20:21:07.140Z,9.30
2018-09-28T20:23:35.428Z,16.13
2018-09-28T20:26:03.731Z,9.03
2018-09-28T20:28:32.972Z,12.20
2018-09-28T20:31:01.260Z,12.10
2018-09-28T20:33:29.536Z,11.53
2018-09-28T20:35:57.887Z,12.70
2018-09-28T20:38:26.246Z,9.20
2018-09-28T20:40:55.144Z,8.23
2018-09-28T20:43:23.742Z,11.57
2018-09-28T20:45:52.119Z,12.23
2018-09-28T20:48:20.435Z,13.13
2018-09-28T20:50:48.793Z,13.77
2018-09-28T20:53:17.208Z,10.03
2018-09-28T20:55:45.619Z,8.67
2018-09-28T20:58:13.973Z,11.97
2018-09-28T21:00:42.314Z,7.17
2018-09-28T21:03:11.246Z,7.90
2018-09-28T21:05:39.595Z,13.40
2018-09-28T21:08:08.780Z,8.00
2018-09-28T21:10:37.170Z,12.13
2018-09-28T21:13:05.579Z,14.10
2018-09-28T21:15:33.933Z,12.37
2018-09-28T21:18:02.264Z,12.13
2018-09-28T21:20:30.598Z,9.60
2018-09-28T21:22:58.891Z,13.37
2018-09-28T21:25:27.169Z,10.43
2018-09-28T21:27:55.677Z,11.37
2018-09-28T21:30:24.521Z,12.78
2018-09-28T21:32:52.869Z,9.50
2018-09-28T21:35:21.192Z,10.17
2018-09-28T21:37:49.560Z,10.63
2018-09-28T21:40:17.865Z,9.63
2018-09-28T21:42:46.611Z,9.63
2018-09-28T21:45:14.967Z,11.57
2018-09-28T21:47:43.250Z,7.97
2018-09-28T21:50:11.545Z,10.27
2018-09-28T21:52:39.816Z,9.70
2018-09-28T21:55:08.221Z,8.83
2018-09-28T21:57:36.486Z,8.47
2018-09-28T22:00:05.864Z,6.47
2018-09-28T22:02:34.101Z,9.27
2018-09-28T22:05:02.325Z,13.97
2018-09-28T22:07:30.563Z,7.43
2018-09-28T22:09:58.812Z,12.07
2018-09-28T22:12:27.083Z,11.63
2018-09-28T22:14:55.293Z,10.08
2018-09-28T22:17:23.629Z,8.23
2018-09-28T22:19:51.910Z,7.90
2018-09-28T22:22:20.373Z,10.83
2018-09-28T22:24:48.680Z,8.03
2018-09-28T22:27:17.042Z,9.00
2018-09-28T22:29:45.310Z,12.13
2018-09-28T22:32:14.175Z,8.23
2018-09-28T22:34:42.446Z,8.57
2018-09-28T22:37:10.708Z,10.53
2018-09-28T22:39:38.985Z,11.10
2018-09-28T22:42:07.230Z,8.33
2018-09-28T22:44:35.495Z,9.17
2018-09-28T22:47:03.752Z,6.00
2018-09-28T22:49:31.991Z,7.57
2018-09-28T22:52:01.104Z,6.77
2018-09-28T22:54:29.996Z,5.62
2018-09-28T22:56:58.231Z,6.37
2018-09-28T22:59:26.530Z,9.03
2018-09-28T23:01:54.799Z,10.03
2018-09-28T23:04:23.055Z,11.27
2018-09-28T23:06:51.308Z,10.70
2018-09-28T23:09:19.624Z,9.90
2018-09-28T23:11:48.000Z,12.30
2018-09-28T23:14:16.276Z,13.63
2018-09-28T23:16:44.487Z,12.23
2018-09-28T23:19:12.724Z,13.27
2018-09-28T23:21:41.026Z,8.60
2018-09-28T23:24:09.286Z,10.93
2018-09-28T23:26:37.496Z,10.97
2018-09-28T23:29:05.803Z,8.33
2018-09-28T23:31:34.712Z,14.83
2018-09-28T23:34:09.364Z,16.13
2018-09-28T23:36:37.681Z,8.87
2018-09-28T23:39:07.109Z,10.17
2018-09-28T23:41:35.369Z,10.87
2018-09-28T23:44:03.604Z,11.10
2018-09-28T23:46:31.955Z,10.50
2018-09-28T23:49:00.192Z,10.20
2018-09-28T23:51:28.435Z,14.37
2018-09-28T23:53:57.612Z,7.97
2018-09-28T23:56:25.850Z,7.57
2018-09-28T23:58:54.105Z,8.17
